createdAt,value
2024-01-20T00:09:49.948Z,-9.79
2024-01-20T00:19:56.341Z,-10.09
2024-01-20T00:30:05.118Z,-9.92
2024-01-20T00:40:09.411Z,-9.99
2024-01-20T00:50:13.936Z,-10.35
2024-01-20T01:00:17.117Z,-10.28
2024-01-20T01:10:21.485Z,-10.93
2024-01-20T01:20:24.343Z,-10.50
2024-01-20T01:30:29.013Z,-10.61
2024-01-20T01:40:31.875Z,-10.79
2024-01-20T01:50:36.099Z,-10.94
2024-01-20T02:00:39.657Z,-10.91
2024-01-20T02:10:45.309Z,-11.00
2024-01-20T02:20:48.398Z,-11.09
2024-01-20T02:30:52.497Z,-11.19
2024-01-20T02:40:55.405Z,-11.35
2024-01-20T02:51:00.615Z,-11.46
2024-01-20T03:01:03.530Z,-11.64
2024-01-20T03:11:07.977Z,-11.52
2024-01-20T03:21:10.887Z,-11.44
2024-01-20T03:31:15.409Z,-11.37
2024-01-20T03:41:19.525Z,-11.65
2024-01-20T03:51:28.571Z,-11.31
2024-01-20T04:01:31.675Z,-11.32
2024-01-20T04:11:39.841Z,-11.49
2024-01-20T04:21:45.296Z,-12.52
2024-01-20T04:31:49.480Z,-11.66
2024-01-20T04:41:52.427Z,-11.45
2024-01-20T04:51:58.626Z,-11.45
2024-01-20T05:02:01.492Z,-11.56
2024-01-20T05:12:06.519Z,-12.36
2024-01-20T05:22:09.566Z,-13.02
2024-01-20T05:32:13.703Z,-11.80
2024-01-20T05:42:16.599Z,-13.26
2024-01-20T05:52:20.899Z,-12.06
2024-01-20T06:02:23.648Z,-12.08
2024-01-20T06:12:27.842Z,-12.20
2024-01-20T06:22:30.690Z,-12.21
2024-01-20T06:32:34.816Z,-12.63
2024-01-20T06:42:37.755Z,-12.28
2024-01-20T06:52:43.411Z,-12.28
2024-01-20T07:02:46.323Z,-12.74
2024-01-20T07:12:50.746Z,-12.53
2024-01-20T07:22:53.754Z,-12.60
2024-01-20T07:33:00.030Z,-12.19
2024-01-20T07:43:02.960Z,-11.87
2024-01-20T07:53:07.441Z,-11.71
2024-01-20T08:03:10.457Z,-11.52
2024-01-20T08:13:15.010Z,-11.40
2024-01-20T08:23:18.124Z,-10.99
2024-01-20T08:33:22.406Z,-9.95
2024-01-20T08:43:25.446Z,-9.19
2024-01-20T08:53:29.935Z,-8.62
2024-01-20T09:03:32.805Z,-0.11
2024-01-20T09:13:37.231Z,5.96
2024-01-20T09:23:40.828Z,10.23
2024-01-20T09:33:46.423Z,8.94
2024-01-20T09:43:50.412Z,8.28
2024-01-20T09:54:00.276Z,11.72
2024-01-20T10:04:05.334Z,9.89
2024-01-20T10:14:09.565Z,7.45
2024-01-20T10:24:12.423Z,13.09
2024-01-20T10:34:16.951Z,15.54
2024-01-20T10:44:22.960Z,16.30
2024-01-20T10:54:29.261Z,17.11
2024-01-20T11:04:36.030Z,19.48
2024-01-20T11:14:42.927Z,20.24
2024-01-20T11:24:46.131Z,13.56
2024-01-20T11:34:50.640Z,12.15
2024-01-20T11:44:53.781Z,16.02
2024-01-20T11:54:57.902Z,17.84
2024-01-20T12:05:07.784Z,16.86
2024-01-20T12:15:13.028Z,14.08
2024-01-20T12:25:17.387Z,14.59
2024-01-20T12:35:22.163Z,15.99
2024-01-20T12:45:32.281Z,14.92
2024-01-20T12:55:41.740Z,13.61
2024-01-20T13:05:46.084Z,10.33
2024-01-20T13:15:50.337Z,7.56
2024-01-20T13:25:55.668Z,5.37
2024-01-20T13:35:59.918Z,3.13
2024-01-20T13:46:03.718Z,0.84
2024-01-20T13:56:08.367Z,0.94
2024-01-20T14:06:33.744Z,0.73
2024-01-20T14:27:45.401Z,0.05
2024-01-20T14:48:40.569Z,-0.84
2024-01-20T14:58:54.375Z,-0.86
2024-01-20T15:08:59.835Z,-1.07
2024-01-20T15:19:04.615Z,-2.44
2024-01-20T15:29:09.366Z,-1.69
2024-01-20T15:39:13.713Z,-1.98
2024-01-20T15:49:18.347Z,-2.23
2024-01-20T15:59:25.181Z,-2.54
2024-01-20T16:09:29.223Z,-3.09
2024-01-20T16:19:36.464Z,-2.97
2024-01-20T16:29:39.293Z,-3.17
2024-01-20T16:39:43.519Z,-3.37
2024-01-20T16:49:46.763Z,-3.55
2024-01-20T16:59:51.300Z,-3.67
2024-01-20T17:09:54.188Z,-3.73
2024-01-20T17:19:59.207Z,-4.36
2024-01-20T17:30:02.102Z,-4.45
2024-01-20T17:40:09.023Z,-4.91
2024-01-20T17:50:12.020Z,-5.01
2024-01-20T18:00:18.177Z,-5.22
2024-01-20T18:10:21.204Z,-5.52
2024-01-20T18:20:25.422Z,-5.87
2024-01-20T18:30:28.256Z,-6.01
2024-01-20T18:40:32.505Z,-6.42
2024-01-20T18:50:38.713Z,-6.50
2024-01-20T19:00:43.073Z,-6.49
2024-01-20T19:10:46.007Z,-6.60
2024-01-20T19:20:50.392Z,-6.59
2024-01-20T19:30:55.446Z,-6.49
2024-01-20T19:40:59.659Z,-6.28
2024-01-20T19:51:02.767Z,-6.25
2024-01-20T20:01:07.714Z,-6.02
2024-01-20T20:11:11.782Z,-5.80
2024-01-20T20:21:16.815Z,-5.82
2024-01-20T20:31:23.169Z,-5.74
2024-01-20T20:41:27.361Z,-5.83
2024-01-20T20:51:30.374Z,-5.75
2024-01-20T21:01:50.400Z,-5.94
2024-01-20T21:11:53.304Z,-5.37
2024-01-20T21:21:57.782Z,-5.23
2024-01-20T21:32:00.668Z,-4.92
2024-01-20T21:42:05.484Z,-4.93
2024-01-20T21:52:08.826Z,-5.11
2024-01-20T22:02:13.000Z,-5.30
2024-01-20T22:12:15.937Z,-5.61
2024-01-20T22:22:20.896Z,-5.76
2024-01-20T22:32:23.881Z,-5.80
2024-01-20T22:42:28.109Z,-5.45
2024-01-20T22:52:31.020Z,-5.32
2024-01-20T23:02:35.167Z,-5.42
2024-01-20T23:12:38.058Z,-5.00
2024-01-20T23:22:42.657Z,-5.06
2024-01-20T23:32:45.799Z,-4.98
2024-01-20T23:42:50.408Z,-4.88
2024-01-20T23:52:53.266Z,-4.83
